EmailTwitter


Surface observations / Quebec / CYUL (71627)

Regions: Quebec | Canada | USA | Europe | France | UK | Elsewhere
Station
Display
Info & Location for CYUL (71627) | Help decoding METAR

Weather Conditions observed on 2019/03/25 at 02:00 UTC at MONTREAL INTL A, QB (CYUL)

Sky conditions: partly cloudy.

Temperature: -1.0 Celsius.

Dewpoint: -3.0 Celsius.

Relative Humidity: 86%

Windchill Factor: -6.

Winds: Southwest at 15 km/h or 8 knots.

Mean Sea level Pressure: 101.65 kilopascals.

Altimeter Setting (QNH): 101.62 kilopascals or 30.01 inches of mercury.

Horizontal visibility: 15.00 statute miles or 24.00 kilometers.

Height of the Ceiling: 1676 metres ( 5500 feet ).

Coded METAR:

CYUL 250200Z 24008KT 15SM FEW013 BKN055 BKN072 M01/M03 A3001 RMK SF1SC5AC2 SF

TR SLP165=